Terminal Aerodrome Forecast
Issued by NWS Pittsburgh, PA

Current Version | Previous Version | Text Only | Print | Product List | Glossary Off
Versions: 1 2 3 4 5 6 7 8 9 10 11 12 13 14 15 16 17 18 19 20 21 22 23 24 25 26 27 28 29 30 31 32 33

000
FTUS41 KPBZ 142300
TAFPIT
TAF
KPIT 142325Z 1500/1606 21010G20KT P6SM -SHRA OVC040
     FM150400 25012KT 5SM -RA OVC015
     FM150900 30012KT 3SM -SHRA OVC008
     FM151600 31015G25KT 3SM -SHSN OVC015
     FM152000 32015G25KT P6SM BKN035=

USA.gov is the U.S. government's official web portal to all federal, state and local government web resources and services.